Fred, Texas
Current Conditions -  °F | °C
As of 7:35 AM on Saturday 25 Oct 2014 (Local Time) from KJAS Reporting Station
Haze Haze  
Wind Chill: 47°   Ceiling: Unl
Heat Index: 47°   Visibility: 5mi
Dew Point: 46°   Wind: 0mph
Humidity: 98%   Direction: NA
Pressure: 30.18"   Gusts: NA
Location:  30.58°N, 94.18°W
Report Text: KJAS 251235Z AUTO 00000KT 5SM BR CLR 08/08 A3018 RMK AO2 T00830080
Loading
Personal Weather Stations






























Interactive Weather Map
Tropical Storm Tracking
New forecast layout! Learn more

10-Day Weather Forecast

Advertisements
Track Severe Weather on mobile